createdAt,value
2022-10-11T04:06:56.932Z,9.10
2022-10-11T04:09:36.145Z,13.07
2022-10-11T04:12:14.412Z,9.63
2022-10-11T04:14:52.375Z,17.53
2022-10-11T04:17:30.813Z,12.30
2022-10-11T04:20:10.663Z,9.00
2022-10-11T04:22:48.668Z,8.47
2022-10-11T04:25:26.949Z,16.83
2022-10-11T05:09:57.352Z,15.67
2022-10-11T05:12:36.418Z,11.93
2022-10-11T05:15:14.621Z,14.47
2022-10-11T05:17:52.943Z,15.17
2022-10-11T05:20:31.150Z,14.73
2022-10-11T05:23:09.252Z,16.03
2022-10-11T05:25:49.676Z,13.07
2022-10-11T05:28:30.437Z,14.63
2022-10-11T05:31:09.109Z,16.93
2022-10-11T05:33:47.204Z,16.17
2022-10-11T05:36:25.102Z,18.23
2022-10-11T05:39:03.360Z,23.73
2022-10-11T05:41:43.213Z,24.97
2022-10-11T05:44:21.347Z,19.73
2022-10-11T05:47:01.200Z,17.50
2022-10-11T05:49:39.389Z,17.43
2022-10-11T05:52:22.239Z,31.53
2022-10-11T05:55:00.658Z,14.43
2022-10-11T05:57:38.765Z,21.30
2022-10-11T06:00:17.100Z,18.23
2022-10-11T06:02:55.262Z,14.87
2022-10-11T08:07:29.753Z,18.07
2022-10-11T08:10:30.537Z,20.57
2022-10-11T08:13:26.726Z,27.33
2022-10-11T08:16:10.997Z,21.97
2022-10-11T08:19:18.740Z,18.97
2022-10-11T09:48:00.418Z,19.10
2022-10-11T09:57:55.173Z,14.13
2022-10-11T10:00:24.439Z,15.57
2022-10-11T10:02:53.409Z,12.73
2022-10-11T10:05:21.911Z,11.90
2022-10-11T10:08:04.293Z,12.70
2022-10-11T10:10:39.038Z,14.03
2022-10-11T10:17:34.721Z,11.50
2022-10-11T10:22:27.351Z,11.10
2022-10-11T10:24:55.576Z,11.03
2022-10-11T10:27:24.177Z,11.33
2022-10-11T10:30:10.027Z,12.50
2022-10-11T11:49:41.683Z,3.73
2022-10-11T11:52:15.924Z,4.23
2022-10-11T11:54:48.153Z,2.73
2022-10-11T11:57:18.824Z,2.87
2022-10-11T11:59:49.212Z,2.77
2022-10-11T12:02:35.004Z,4.33
2022-10-11T12:05:02.579Z,2.97
2022-10-11T13:01:55.938Z,2.70
2022-10-11T13:04:26.229Z,3.00
2022-10-11T13:07:01.112Z,3.17
2022-10-11T13:09:36.491Z,2.77
2022-10-11T13:12:07.087Z,2.63
2022-10-11T13:38:24.041Z,2.80
2022-10-11T13:43:06.491Z,3.17
2022-10-11T13:45:36.913Z,3.33
2022-10-11T13:48:04.986Z,2.40
2022-10-11T13:50:34.465Z,2.33
2022-10-11T13:53:04.206Z,4.07
2022-10-11T13:55:31.605Z,3.73
2022-10-11T14:19:20.757Z,2.87
2022-10-11T14:21:51.112Z,2.23
2022-10-11T14:24:19.430Z,3.57
2022-10-11T14:26:50.419Z,2.37
2022-10-11T14:29:27.943Z,2.60
2022-10-11T14:32:17.231Z,2.93
2022-10-11T14:34:45.609Z,3.37
2022-10-11T14:37:14.250Z,2.87
2022-10-11T14:39:41.804Z,2.50
2022-10-11T14:42:11.951Z,3.27
2022-10-11T14:44:39.435Z,2.60
2022-10-11T14:47:07.559Z,3.13
2022-10-11T14:49:36.596Z,3.50
2022-10-11T14:52:05.465Z,2.63
2022-10-11T15:00:28.896Z,3.37
2022-10-11T15:02:56.933Z,2.80
2022-10-11T15:05:31.187Z,2.47
2022-10-11T15:08:01.341Z,2.53
2022-10-11T15:10:35.472Z,2.87
2022-10-11T15:13:03.305Z,3.47
2022-10-11T15:15:32.930Z,4.63
2022-10-11T15:18:01.964Z,3.43
2022-10-11T15:20:32.901Z,2.30
2022-10-11T15:23:00.974Z,3.33
2022-10-11T15:25:29.069Z,2.83
2022-10-11T15:27:56.964Z,2.77
2022-10-11T15:30:31.549Z,4.40
2022-10-11T15:32:58.924Z,2.73
2022-10-11T15:35:27.075Z,3.33
2022-10-11T15:37:55.978Z,2.60
2022-10-11T15:40:23.495Z,2.83
2022-10-11T15:42:51.084Z,2.83
2022-10-11T15:45:19.277Z,3.37
2022-10-11T15:47:46.731Z,2.50
2022-10-11T15:50:14.471Z,2.57
2022-10-11T15:52:42.348Z,2.47
2022-10-11T15:55:09.835Z,4.33
2022-10-11T15:57:38.121Z,3.47
2022-10-11T16:00:05.804Z,2.90
2022-10-11T16:02:39.850Z,3.10
2022-10-11T16:05:07.379Z,3.67
2022-10-11T16:07:35.108Z,2.97
2022-10-11T16:10:03.137Z,4.93
2022-10-11T16:12:31.554Z,3.07
2022-10-11T16:15:00.292Z,3.20
2022-10-11T16:17:27.795Z,3.00
2022-10-11T16:19:55.381Z,2.60
2022-10-11T16:22:22.782Z,2.90
2022-10-11T16:24:50.287Z,4.17
2022-10-11T16:27:18.993Z,3.13
2022-10-11T16:29:46.628Z,2.97
2022-10-11T16:32:14.133Z,2.80
2022-10-11T16:34:41.708Z,2.90
2022-10-11T17:11:04.269Z,3.30
2022-10-11T17:13:31.730Z,3.57
2022-10-11T17:15:59.436Z,4.93
2022-10-11T17:18:27.124Z,5.23
2022-10-11T17:21:04.910Z,4.20
2022-10-11T17:23:32.732Z,4.50
2022-10-11T17:26:04.396Z,3.53
2022-10-11T17:28:35.302Z,3.73
2022-10-11T17:31:04.159Z,4.03
2022-10-11T17:33:32.237Z,4.83
2022-10-11T17:36:00.302Z,5.17
2022-10-11T17:38:28.058Z,4.70
2022-10-11T17:41:02.357Z,5.30
2022-10-11T17:43:30.215Z,6.77
2022-10-11T17:45:58.502Z,5.77
2022-10-11T17:48:27.439Z,5.77
2022-10-11T17:50:55.124Z,5.43
2022-10-11T17:53:22.611Z,5.77
2022-10-11T17:55:50.417Z,5.90
2022-10-11T17:58:18.860Z,6.03
2022-10-11T18:00:46.457Z,6.10
2022-10-11T18:03:14.148Z,6.63
2022-10-11T18:05:42.057Z,6.87
2022-10-11T18:08:09.866Z,5.40
2022-10-11T18:10:37.962Z,5.57
2022-10-11T18:13:06.804Z,4.97
2022-10-11T18:15:34.883Z,6.33
2022-10-11T18:39:36.710Z,6.90
2022-10-11T18:42:04.487Z,6.07
2022-10-11T18:44:32.460Z,6.47
2022-10-11T18:49:13.551Z,7.47
2022-10-11T18:53:42.228Z,10.53
2022-10-11T18:56:10.498Z,8.27
2022-10-11T18:58:39.099Z,10.03
2022-10-11T19:01:11.390Z,15.07
2022-10-11T19:03:39.412Z,11.27
2022-10-11T19:06:08.314Z,10.83
2022-10-11T19:08:36.114Z,8.93
2022-10-11T19:11:07.809Z,9.00
2022-10-11T19:13:35.634Z,9.37
2022-10-11T19:16:05.245Z,9.47
2022-10-11T19:18:32.904Z,9.17
2022-10-11T21:21:52.557Z,8.60
2022-10-11T21:26:39.808Z,8.53
2022-10-11T21:29:08.352Z,8.97
2022-10-11T21:31:35.702Z,11.33
2022-10-11T21:34:05.140Z,9.83
2022-10-11T21:36:32.549Z,8.70
2022-10-11T21:38:59.634Z,9.17
2022-10-11T21:41:29.857Z,8.90
2022-10-11T21:43:57.450Z,8.70
2022-10-11T21:47:01.293Z,12.27
2022-10-11T21:49:17.749Z,8.50
2022-10-11T21:51:45.259Z,9.80
2022-10-11T21:54:12.605Z,10.90
2022-10-11T21:56:40.037Z,10.50
2022-10-11T21:59:11.096Z,9.03
2022-10-11T22:01:40.292Z,10.10
2022-10-11T22:04:07.618Z,9.13
2022-10-11T22:06:35.334Z,9.70
2022-10-11T22:09:03.758Z,9.07
2022-10-11T22:11:31.154Z,12.53
2022-10-11T22:13:58.757Z,11.17
2022-10-11T22:16:26.086Z,9.70
2022-10-11T22:18:54.041Z,9.87
2022-10-11T22:21:23.130Z,9.93
2022-10-11T22:23:52.538Z,9.77
2022-10-11T22:26:22.013Z,10.13
2022-10-11T22:28:49.649Z,10.27
2022-10-11T22:31:20.260Z,10.40
2022-10-11T22:33:47.666Z,9.40
2022-10-11T22:36:19.446Z,9.27
2022-10-11T22:38:46.926Z,10.17
2022-10-11T22:41:14.476Z,8.77
2022-10-11T22:43:41.873Z,9.10
2022-10-11T22:46:09.418Z,9.17
2022-10-11T22:48:36.804Z,8.80
2022-10-11T22:51:04.501Z,10.70
2022-10-11T22:53:31.967Z,11.47
2022-10-11T22:56:00.180Z,9.67
2022-10-11T22:58:28.318Z,8.50
2022-10-11T23:00:55.804Z,9.43
2022-10-11T23:03:23.769Z,9.00
2022-10-11T23:05:55.923Z,9.23
2022-10-11T23:08:23.537Z,8.87
2022-10-11T23:10:50.460Z,9.13
2022-10-11T23:13:18.090Z,10.27
2022-10-11T23:15:45.261Z,9.60
2022-10-11T23:18:12.722Z,8.60
2022-10-11T23:20:39.892Z,9.80
2022-10-11T23:23:07.650Z,10.03
2022-10-11T23:25:35.079Z,8.87
2022-10-11T23:28:02.554Z,8.53
2022-10-11T23:30:30.076Z,10.03
2022-10-11T23:32:57.906Z,9.30
2022-10-11T23:35:25.327Z,8.83
2022-10-11T23:37:55.578Z,9.67
2022-10-11T23:40:22.975Z,9.53
2022-10-11T23:42:50.300Z,8.97
2022-10-11T23:45:18.236Z,8.87
2022-10-11T23:47:45.345Z,9.53
2022-10-11T23:50:12.711Z,10.10
2022-10-11T23:52:40.045Z,10.00
2022-10-11T23:55:07.849Z,9.77
2022-10-11T23:57:35.427Z,10.27
